createdAt,value
2023-06-04T00:01:01.081Z,100627.22
2023-06-04T00:03:27.966Z,100458.41
2023-06-04T00:05:54.692Z,100522.28
2023-06-04T00:08:21.214Z,100596.91
2023-06-04T00:10:47.705Z,100573.91
2023-06-04T00:13:14.313Z,100616.34
2023-06-04T00:15:41.079Z,100620.06
2023-06-04T00:18:07.618Z,100591.94
2023-06-04T00:20:34.215Z,100575.31
2023-06-04T00:23:00.709Z,100587.13
2023-06-04T00:25:27.153Z,100561.22
2023-06-04T00:27:53.599Z,100592.72
2023-06-04T00:30:20.117Z,100554.75
2023-06-04T00:32:48.203Z,100592.06
2023-06-04T00:35:15.311Z,100601.47
2023-06-04T00:37:41.753Z,100607.75
2023-06-04T00:40:08.766Z,100606.25
2023-06-04T00:42:35.250Z,100542.72
2023-06-04T00:45:02.369Z,100601.66
2023-06-04T00:47:28.905Z,100540.00
2023-06-04T00:49:57.995Z,100612.38
2023-06-04T00:52:25.295Z,100618.50
2023-06-04T00:54:52.970Z,100572.50
2023-06-04T00:57:19.497Z,100545.75
2023-06-04T00:59:46.128Z,100598.16
2023-06-04T01:02:16.766Z,100597.22
2023-06-04T01:04:47.404Z,100527.13
2023-06-04T01:07:15.294Z,100617.63
2023-06-04T01:09:41.979Z,100615.91
2023-06-04T01:12:09.306Z,100595.56
2023-06-04T01:14:36.699Z,100605.28
2023-06-04T01:17:09.516Z,100619.03
2023-06-04T01:20:02.090Z,100615.50
2023-06-04T01:22:45.099Z,100592.59
2023-06-04T01:25:34.606Z,100617.72
2023-06-04T01:28:04.097Z,100612.53
2023-06-04T01:30:35.204Z,100582.91
2023-06-04T01:33:02.934Z,100503.72
2023-06-04T01:35:34.182Z,100617.25
2023-06-04T01:38:00.791Z,100597.59
2023-06-04T01:40:27.790Z,100600.34
2023-06-04T01:42:54.874Z,100615.78
2023-06-04T01:45:22.816Z,100585.66
2023-06-04T01:47:49.546Z,100529.59
2023-06-04T01:50:16.789Z,100589.78
2023-06-04T01:52:43.572Z,100517.22
2023-06-04T01:55:13.216Z,100610.91
2023-06-04T01:57:40.603Z,100617.41
2023-06-04T02:00:13.092Z,100593.69
2023-06-04T02:02:41.454Z,100615.94
2023-06-04T02:05:09.242Z,100596.72
2023-06-04T02:07:40.236Z,100597.56
2023-06-04T02:10:09.095Z,100591.69
2023-06-04T02:12:41.021Z,100612.16
2023-06-04T02:15:08.589Z,100617.63
2023-06-04T02:17:38.590Z,100592.63
2023-06-04T02:20:06.938Z,100570.31
2023-06-04T02:22:33.411Z,100601.16
2023-06-04T02:24:59.830Z,100597.06
2023-06-04T02:27:26.322Z,100535.84
2023-06-04T02:29:52.788Z,100608.66
2023-06-04T02:32:19.282Z,100611.59
2023-06-04T02:34:45.786Z,100622.28
2023-06-04T02:37:12.388Z,100608.47
2023-06-04T02:39:38.848Z,100617.38
2023-06-04T02:42:05.836Z,100566.22
2023-06-04T02:44:32.337Z,100584.56
2023-06-04T02:46:59.015Z,100620.25
2023-06-04T02:49:26.110Z,100593.31
2023-06-04T02:51:52.566Z,100572.88
2023-06-04T02:54:19.028Z,100574.75
2023-06-04T02:56:45.533Z,100623.13
2023-06-04T02:59:14.432Z,100562.91
2023-06-04T03:01:41.706Z,100603.53
2023-06-04T03:04:11.082Z,100613.09
2023-06-04T03:06:40.602Z,100618.34
2023-06-04T03:09:08.113Z,100433.72
2023-06-04T03:11:34.595Z,100550.28
2023-06-04T03:14:01.096Z,100603.53
2023-06-04T03:16:27.746Z,100586.97
2023-06-04T03:18:54.347Z,100614.31
2023-06-04T03:21:20.845Z,100630.78
2023-06-04T03:23:47.353Z,100616.91
2023-06-04T03:26:13.894Z,100610.88
2023-06-04T03:28:41.243Z,100561.69
2023-06-04T03:31:07.918Z,100601.25
2023-06-04T03:33:34.568Z,100599.78
2023-06-04T03:36:01.557Z,100574.09
2023-06-04T03:38:28.063Z,100474.59
2023-06-04T03:40:54.589Z,100589.63
2023-06-04T03:43:22.021Z,100619.78
2023-06-04T03:45:48.512Z,100599.63
2023-06-04T03:48:14.998Z,100598.06
2023-06-04T03:50:42.321Z,100610.88
2023-06-04T03:53:09.033Z,100570.25
2023-06-04T03:55:35.468Z,100624.16
2023-06-04T03:58:01.957Z,100513.50
2023-06-04T04:00:28.678Z,100634.00
2023-06-04T04:02:55.304Z,100625.41
2023-06-04T04:05:21.900Z,100633.28
2023-06-04T04:07:49.089Z,100628.84
2023-06-04T04:10:15.554Z,100603.06
2023-06-04T04:12:42.135Z,100458.91
2023-06-04T04:15:09.517Z,100614.63
2023-06-04T04:17:36.096Z,100540.13
2023-06-04T04:20:05.068Z,100596.44
2023-06-04T04:22:32.341Z,100610.72
2023-06-04T04:24:59.041Z,100567.06
2023-06-04T04:27:25.503Z,100622.50
2023-06-04T04:29:52.126Z,100612.97
2023-06-04T04:32:18.623Z,100576.72
2023-06-04T04:34:55.569Z,100596.81
2023-06-04T04:37:22.863Z,100638.81
2023-06-04T04:39:52.772Z,100618.06
2023-06-04T04:42:20.256Z,100637.66
2023-06-04T04:44:48.960Z,100603.81
2023-06-04T04:47:16.428Z,100637.06
2023-06-04T04:49:43.141Z,100639.56
2023-06-04T04:52:09.650Z,100643.03
2023-06-04T04:54:36.118Z,100612.56
2023-06-04T04:57:13.388Z,100550.88
2023-06-04T04:59:40.919Z,100632.84
2023-06-04T05:02:07.634Z,100643.00
2023-06-04T05:04:34.283Z,100605.56
2023-06-04T05:07:00.965Z,100605.56
2023-06-04T05:09:27.539Z,100543.50
2023-06-04T05:11:54.068Z,100645.72
2023-06-04T05:14:20.563Z,100657.16
2023-06-04T05:16:49.592Z,100621.31
2023-06-04T05:19:19.164Z,100663.25
2023-06-04T05:21:45.670Z,100665.75
2023-06-04T05:24:12.181Z,100626.84
2023-06-04T05:26:40.689Z,100645.97
2023-06-04T05:29:08.616Z,100621.25
2023-06-04T05:31:35.920Z,100626.66
2023-06-04T05:34:03.010Z,100679.25
2023-06-04T05:36:31.324Z,100605.13
2023-06-04T05:38:58.767Z,100685.66
2023-06-04T05:41:25.330Z,100604.97
2023-06-04T05:43:51.839Z,100640.50
2023-06-04T05:46:18.670Z,100690.22
2023-06-04T05:48:45.140Z,100649.19
2023-06-04T05:51:11.678Z,100628.72
2023-06-04T05:53:38.121Z,100670.28
2023-06-04T05:56:04.857Z,100665.19
2023-06-04T05:58:32.232Z,100674.44
2023-06-04T06:00:58.673Z,100683.59
2023-06-04T06:03:25.233Z,100650.84
2023-06-04T06:05:51.984Z,100651.81
2023-06-04T06:08:18.477Z,100678.88
2023-06-04T06:10:44.934Z,100688.13
2023-06-04T06:13:11.656Z,100650.19
2023-06-04T06:15:38.134Z,100676.22
2023-06-04T06:18:04.995Z,100683.75
2023-06-04T06:20:31.589Z,100668.06
2023-06-04T06:22:58.105Z,100642.91
2023-06-04T06:25:24.659Z,100667.13
2023-06-04T06:27:51.201Z,100660.44
2023-06-04T06:30:18.463Z,100640.72
2023-06-04T06:32:44.954Z,100697.19
2023-06-04T06:35:11.437Z,100700.28
2023-06-04T06:37:42.937Z,100696.25
2023-06-04T06:40:10.029Z,100708.28
2023-06-04T06:42:36.473Z,100674.34
2023-06-04T06:45:03.101Z,100700.88
2023-06-04T06:47:29.670Z,100673.41
2023-06-04T06:49:56.302Z,100661.78
2023-06-04T06:52:22.765Z,100669.72
2023-06-04T06:54:49.273Z,100702.31
2023-06-04T06:57:16.161Z,100601.66
2023-06-04T06:59:42.620Z,100627.28
2023-06-04T07:02:09.111Z,100716.06
2023-06-04T07:04:37.406Z,100643.97
2023-06-04T07:07:04.212Z,100662.53
2023-06-04T07:09:30.821Z,100713.69
2023-06-04T07:11:57.297Z,100665.28
2023-06-04T07:14:23.760Z,100652.47
2023-06-04T07:16:50.332Z,100679.63
2023-06-04T07:19:16.848Z,100634.38
2023-06-04T07:21:43.335Z,100722.13
2023-06-04T07:24:09.977Z,100710.66
2023-06-04T07:26:36.720Z,100638.63
2023-06-04T07:29:03.449Z,100718.28
2023-06-04T07:31:29.965Z,100685.56
2023-06-04T07:33:56.475Z,100689.47
2023-06-04T07:36:23.783Z,100616.09
2023-06-04T07:38:50.353Z,100683.50
2023-06-04T07:41:16.936Z,100719.53
2023-06-04T07:43:44.398Z,100621.53
2023-06-04T07:46:11.939Z,100708.91
2023-06-04T07:48:38.407Z,100729.00
2023-06-04T07:51:08.131Z,100726.16
2023-06-04T07:53:34.786Z,100657.50
2023-06-04T07:56:01.312Z,100617.31
2023-06-04T07:58:27.872Z,100732.06
2023-06-04T08:00:54.489Z,100581.69
2023-06-04T08:03:21.638Z,100633.50
2023-06-04T08:05:49.427Z,100615.38
2023-06-04T08:08:16.098Z,100618.78
2023-06-04T08:10:42.865Z,100718.69
2023-06-04T08:13:10.967Z,100583.06
2023-06-04T08:15:40.037Z,100651.50
2023-06-04T08:18:06.674Z,100574.81
2023-06-04T08:20:33.198Z,100678.69
2023-06-04T08:22:59.693Z,100677.09
2023-06-04T08:25:26.331Z,100660.06
2023-06-04T08:27:52.955Z,100672.56
2023-06-04T08:30:20.410Z,100639.59
2023-06-04T08:32:46.993Z,100583.91
2023-06-04T08:35:13.674Z,100637.91
2023-06-04T08:37:40.998Z,100690.75
2023-06-04T08:40:09.844Z,100699.88
2023-06-04T08:42:42.147Z,100702.56
2023-06-04T08:45:17.587Z,100717.47
2023-06-04T08:47:52.062Z,100635.44
2023-06-04T08:50:21.901Z,100731.09
2023-06-04T08:52:49.385Z,100685.63
2023-06-04T08:55:16.076Z,100655.81
2023-06-04T08:57:42.671Z,100590.38
2023-06-04T09:00:10.774Z,100718.75
2023-06-04T09:02:38.852Z,100677.34
2023-06-04T09:05:10.117Z,100748.66
2023-06-04T09:07:40.477Z,100716.56
2023-06-04T09:10:13.858Z,100705.13
2023-06-04T09:12:47.506Z,100737.19
2023-06-04T09:15:14.378Z,100651.22
2023-06-04T09:17:40.968Z,100681.69
2023-06-04T09:20:10.781Z,100709.09
2023-06-04T09:22:38.628Z,100731.13
2023-06-04T09:25:08.304Z,100664.88
2023-06-04T09:27:41.428Z,100733.66
2023-06-04T09:30:11.445Z,100701.38
2023-06-04T09:32:38.074Z,100720.25
2023-06-04T09:35:15.816Z,100733.16
2023-06-04T09:37:43.393Z,100639.66
2023-06-04T09:40:10.609Z,100653.31
2023-06-04T09:42:43.831Z,100654.34
2023-06-04T09:45:10.960Z,100724.88
2023-06-04T09:47:44.413Z,100646.69
2023-06-04T09:50:14.546Z,100596.69
2023-06-04T09:52:41.800Z,100662.03
2023-06-04T09:55:23.232Z,100615.66
2023-06-04T09:57:53.586Z,100677.38
2023-06-04T10:00:24.306Z,100712.75
2023-06-04T10:02:56.935Z,100558.72
2023-06-04T10:05:25.486Z,100585.88
2023-06-04T10:07:55.708Z,100591.13
2023-06-04T10:10:26.635Z,100633.34
2023-06-04T10:13:03.611Z,100657.09
2023-06-04T10:15:30.419Z,100687.97
2023-06-04T10:17:57.493Z,100653.72
2023-06-04T10:20:24.709Z,100692.00
2023-06-04T10:22:51.702Z,100598.09
2023-06-04T10:25:19.342Z,100656.19
2023-06-04T10:27:47.559Z,100670.00
2023-06-04T10:30:14.257Z,100611.75
2023-06-04T10:32:41.915Z,100647.28
2023-06-04T10:35:09.191Z,100637.75
2023-06-04T10:37:36.100Z,100706.34
2023-06-04T10:40:05.738Z,100592.06
2023-06-04T10:42:40.301Z,100580.53
2023-06-04T10:45:14.626Z,100631.53
2023-06-04T10:47:42.673Z,100481.03
2023-06-04T10:50:56.234Z,100535.53
2023-06-04T10:53:23.915Z,100560.19
2023-06-04T10:55:54.365Z,100556.47
2023-06-04T10:58:22.067Z,100556.03
2023-06-04T11:01:04.672Z,100696.97
2023-06-04T11:03:38.483Z,100671.31
2023-06-04T11:06:16.943Z,100607.41
2023-06-04T11:08:46.131Z,100598.06
2023-06-04T11:11:16.764Z,100685.78
2023-06-04T11:13:44.813Z,100506.78
2023-06-04T11:16:18.964Z,100693.28
2023-06-04T11:18:55.736Z,100452.63
2023-06-04T11:21:22.680Z,100611.31
2023-06-04T11:23:49.584Z,100580.66
2023-06-04T11:26:16.118Z,100647.94
2023-06-04T11:28:44.349Z,100548.78
2023-06-04T11:31:11.376Z,100601.50
2023-06-04T11:33:46.139Z,100631.53
2023-06-04T11:36:29.720Z,100683.19
2023-06-04T11:38:57.772Z,100683.03
2023-06-04T11:41:28.013Z,100636.13
2023-06-04T11:43:54.429Z,100684.19
2023-06-04T11:46:21.663Z,100644.22
2023-06-04T11:48:48.215Z,100642.56
2023-06-04T11:51:14.725Z,100657.09
2023-06-04T11:53:41.700Z,100632.25
2023-06-04T11:56:08.472Z,100678.16
2023-06-04T11:58:35.478Z,100665.47
2023-06-04T12:01:02.236Z,100648.56
2023-06-04T12:03:38.561Z,100651.50
2023-06-04T12:06:18.632Z,100638.09
2023-06-04T12:08:55.727Z,100576.16
2023-06-04T12:11:35.939Z,100632.13
2023-06-04T12:14:05.215Z,100648.91
2023-06-04T12:16:32.193Z,100625.72
2023-06-04T12:19:09.761Z,100621.16
2023-06-04T12:21:36.882Z,100659.94
2023-06-04T12:24:07.008Z,100603.09
2023-06-04T12:26:38.926Z,100665.34
2023-06-04T12:29:13.069Z,100549.41
2023-06-04T12:31:44.148Z,100648.56
2023-06-04T12:34:12.587Z,100601.84
2023-06-04T12:36:39.398Z,100594.13
2023-06-04T12:39:06.616Z,100605.72
2023-06-04T12:41:37.593Z,100556.63
2023-06-04T12:44:04.145Z,100636.63
2023-06-04T12:46:30.664Z,100641.97
2023-06-04T12:48:57.144Z,100580.50
2023-06-04T12:51:23.789Z,100623.38
2023-06-04T12:53:50.477Z,100510.41
2023-06-04T12:56:17.178Z,100597.63
2023-06-04T12:58:43.870Z,100562.22
2023-06-04T13:01:11.230Z,100610.25
2023-06-04T13:03:39.689Z,100511.44
2023-06-04T13:06:06.785Z,100371.31
2023-06-04T13:08:34.557Z,100482.03
2023-06-04T13:11:02.603Z,100623.16
2023-06-04T13:13:29.614Z,100602.75
2023-06-04T13:15:56.321Z,100441.72
2023-06-04T13:18:23.494Z,100473.91
2023-06-04T13:20:50.536Z,100574.16
2023-06-04T13:23:17.470Z,100464.09
2023-06-04T13:25:44.257Z,100583.69
2023-06-04T13:28:10.742Z,100484.91
2023-06-04T13:30:40.219Z,100608.41
2023-06-04T13:33:07.205Z,100607.41
2023-06-04T13:35:33.971Z,100607.53
2023-06-04T13:38:00.717Z,100603.28
2023-06-04T13:40:27.236Z,100612.66
2023-06-04T13:42:53.742Z,100569.13
2023-06-04T13:45:21.280Z,100597.13
2023-06-04T13:47:54.388Z,100604.94
2023-06-04T13:50:22.483Z,100492.81
2023-06-04T13:52:49.034Z,100563.69
2023-06-04T13:55:15.488Z,100584.22
2023-06-04T13:57:41.975Z,100596.78
2023-06-04T14:00:09.216Z,100578.50
2023-06-04T14:02:36.110Z,100547.97
2023-06-04T14:05:02.750Z,100387.72
2023-06-04T14:07:29.556Z,100536.13
2023-06-04T14:09:57.178Z,100536.41
2023-06-04T14:12:24.423Z,100589.94
2023-06-04T14:14:51.555Z,100542.53
2023-06-04T14:17:18.371Z,100500.44
2023-06-04T14:19:45.512Z,100557.50
2023-06-04T14:22:12.983Z,100496.03
2023-06-04T14:24:41.487Z,100488.34
2023-06-04T14:27:07.978Z,100420.84
2023-06-04T14:29:37.441Z,100579.44
2023-06-04T14:32:06.874Z,100534.31
2023-06-04T14:34:33.630Z,100568.34
2023-06-04T14:37:01.423Z,100543.56
2023-06-04T14:39:37.635Z,100486.56
2023-06-04T14:42:04.779Z,100264.59
2023-06-04T14:44:31.618Z,100539.84
2023-06-04T14:47:00.172Z,100550.44
2023-06-04T14:49:27.189Z,100548.25
2023-06-04T14:51:53.651Z,100447.94
2023-06-04T14:54:20.265Z,100507.16
2023-06-04T14:56:46.881Z,100470.16
2023-06-04T14:59:13.347Z,100531.47
2023-06-04T15:01:41.852Z,100531.75
2023-06-04T15:04:09.294Z,100543.34
2023-06-04T15:06:36.203Z,100483.00
2023-06-04T15:09:04.590Z,100545.72
2023-06-04T15:11:31.304Z,100524.44
2023-06-04T15:13:57.935Z,100488.00
2023-06-04T15:16:24.625Z,100492.09
2023-06-04T15:18:51.277Z,100428.66
2023-06-04T15:21:17.966Z,100444.50
2023-06-04T15:23:47.047Z,100449.34
2023-06-04T15:26:13.570Z,100446.28
2023-06-04T15:28:40.077Z,100443.22
2023-06-04T15:31:06.856Z,100429.13
2023-06-04T15:33:33.676Z,100427.91
2023-06-04T15:36:00.573Z,100530.44
2023-06-04T15:38:27.227Z,100432.66
2023-06-04T15:40:53.740Z,100531.97
2023-06-04T15:43:20.268Z,100528.78
2023-06-04T15:45:46.842Z,100430.31
2023-06-04T15:48:13.347Z,100487.22
2023-06-04T15:50:39.822Z,100470.03
2023-06-04T15:53:06.313Z,100469.72
2023-06-04T15:55:33.549Z,100458.47
2023-06-04T15:58:00.065Z,100407.41
2023-06-04T16:00:27.023Z,100368.72
2023-06-04T16:02:53.549Z,100519.59
2023-06-04T16:05:20.095Z,100486.09
2023-06-04T16:07:46.585Z,100479.97
2023-06-04T16:10:13.050Z,100479.66
2023-06-04T16:12:41.084Z,100411.56
2023-06-04T16:15:07.968Z,100446.34
2023-06-04T16:17:34.607Z,100424.59
2023-06-04T16:20:01.346Z,100485.53
2023-06-04T16:22:27.902Z,100432.63
2023-06-04T16:24:54.573Z,100478.97
2023-06-04T16:27:21.552Z,100485.78
2023-06-04T16:29:48.049Z,100397.84
2023-06-04T16:32:14.529Z,100362.69
2023-06-04T16:34:41.137Z,100389.81
2023-06-04T16:37:08.086Z,100403.84
2023-06-04T16:39:34.907Z,100458.88
2023-06-04T16:42:03.934Z,100393.94
2023-06-04T16:44:30.436Z,100465.91
2023-06-04T16:46:57.038Z,100489.53
2023-06-04T16:49:23.565Z,100366.09
2023-06-04T16:51:59.951Z,100428.69
2023-06-04T16:55:05.241Z,100257.59
2023-06-04T16:57:32.785Z,100358.06
2023-06-04T17:00:07.082Z,100513.28
2023-06-04T17:02:40.229Z,100509.06
2023-06-04T17:05:16.476Z,100493.41
2023-06-04T17:07:50.231Z,100419.38
2023-06-04T17:10:17.832Z,100470.97
2023-06-04T17:12:44.515Z,100472.97
2023-06-04T17:15:11.131Z,100384.22
2023-06-04T17:17:37.676Z,100438.47
2023-06-04T17:20:07.061Z,100409.25
2023-06-04T17:22:33.581Z,100410.09
2023-06-04T17:25:00.102Z,100427.06
2023-06-04T17:27:26.679Z,100478.66
2023-06-04T17:29:53.145Z,100428.44
2023-06-04T17:32:19.621Z,100503.03
2023-06-04T17:34:46.576Z,100528.84
2023-06-04T17:37:13.096Z,100498.19
2023-06-04T17:39:39.744Z,100456.91
2023-06-04T17:42:06.568Z,100499.03
2023-06-04T17:44:33.071Z,100509.16
2023-06-04T17:47:04.729Z,100427.97
2023-06-04T17:49:31.319Z,100399.53
2023-06-04T17:51:59.740Z,100410.19
2023-06-04T17:54:26.268Z,100486.44
2023-06-04T17:56:52.854Z,100491.28
2023-06-04T17:59:19.377Z,100515.56
2023-06-04T18:01:48.260Z,100459.09
2023-06-04T18:04:14.940Z,100395.59
2023-06-04T18:06:41.608Z,100429.75
2023-06-04T18:09:08.145Z,100494.84
2023-06-04T18:11:34.651Z,100500.56
2023-06-04T18:14:01.597Z,100438.09
2023-06-04T18:16:28.268Z,100463.47
2023-06-04T18:18:55.745Z,100547.31
2023-06-04T18:21:22.362Z,100456.13
2023-06-04T18:23:52.736Z,100510.03
2023-06-04T18:26:19.519Z,100499.69
2023-06-04T18:28:46.079Z,100463.41
2023-06-04T18:31:12.702Z,100442.00
2023-06-04T18:33:53.732Z,100290.59
2023-06-04T18:36:20.728Z,100390.41
2023-06-04T18:38:47.251Z,100401.88
2023-06-04T18:41:14.148Z,100563.06
2023-06-04T18:43:40.956Z,100465.56
2023-06-04T18:46:07.608Z,100429.25
2023-06-04T18:48:34.484Z,100477.75
2023-06-04T18:51:00.963Z,100529.69
2023-06-04T18:53:27.650Z,100466.25
2023-06-04T18:55:55.338Z,100539.34
2023-06-04T18:58:22.020Z,100508.66
2023-06-04T19:00:48.669Z,100465.72
2023-06-04T19:03:15.272Z,100500.03
2023-06-04T19:05:41.863Z,100553.31
2023-06-04T19:08:10.049Z,100507.66
2023-06-04T19:10:36.558Z,100446.00
2023-06-04T19:13:03.818Z,100533.06
2023-06-04T19:15:30.574Z,100569.19
2023-06-04T19:17:58.847Z,100496.28
2023-06-04T19:20:25.756Z,100540.56
2023-06-04T19:22:52.251Z,100481.00
2023-06-04T19:25:18.708Z,100545.19
2023-06-04T19:27:45.634Z,100570.66
2023-06-04T19:30:12.182Z,100442.69
2023-06-04T19:32:38.743Z,100560.75
2023-06-04T19:35:07.977Z,100588.13
2023-06-04T19:37:34.604Z,100465.09
2023-06-04T19:40:01.644Z,100539.19
2023-06-04T19:42:28.149Z,100622.56
2023-06-04T19:44:54.805Z,100463.19
2023-06-04T19:48:19.137Z,100616.09
2023-06-04T19:50:45.934Z,100488.09
2023-06-04T19:53:12.482Z,100464.56
2023-06-04T19:55:39.013Z,100536.06
2023-06-04T19:58:05.520Z,100619.75
2023-06-04T20:00:32.068Z,100476.81
2023-06-04T20:02:58.860Z,100579.66
2023-06-04T20:05:25.441Z,100511.84
2023-06-04T20:07:51.919Z,100557.56
2023-06-04T20:10:24.749Z,100635.09
2023-06-04T20:12:54.147Z,100403.03
2023-06-04T20:15:21.104Z,100542.53
2023-06-04T20:17:49.404Z,100554.88
2023-06-04T20:20:16.884Z,100440.03
2023-06-04T20:22:44.381Z,100509.81
2023-06-04T20:25:11.819Z,100554.25
2023-06-04T20:27:52.945Z,100398.44
2023-06-04T20:30:19.971Z,100540.50
2023-06-04T20:32:47.110Z,100489.69
2023-06-04T20:35:14.167Z,100463.41
2023-06-04T20:37:40.760Z,100649.38
2023-06-04T20:40:08.173Z,100654.22
2023-06-04T20:42:34.746Z,100554.75
2023-06-04T20:45:01.647Z,100559.38
2023-06-04T20:47:28.370Z,100551.81
2023-06-04T20:49:55.617Z,100408.78
2023-06-04T20:52:22.349Z,100665.91
2023-06-04T20:54:48.858Z,100604.47
2023-06-04T20:57:15.362Z,100601.50
2023-06-04T20:59:42.055Z,100432.97
2023-06-04T21:02:08.913Z,100541.38
2023-06-04T21:04:35.615Z,100675.84
2023-06-04T21:07:02.644Z,100639.09
2023-06-04T21:09:29.297Z,100578.88
2023-06-04T21:11:55.847Z,100581.16
2023-06-04T21:14:22.305Z,100651.69
2023-06-04T21:16:48.856Z,100557.00
2023-06-04T21:19:15.396Z,100569.09
2023-06-04T21:21:41.993Z,100518.88
2023-06-04T21:24:08.811Z,100630.53
2023-06-04T21:26:35.374Z,100669.28
2023-06-04T21:29:01.904Z,100467.97
2023-06-04T21:31:28.497Z,100625.00
2023-06-04T21:33:55.035Z,100504.72
2023-06-04T21:36:21.552Z,100503.84
2023-06-04T21:38:48.709Z,100627.72
2023-06-04T21:41:15.331Z,100484.03
2023-06-04T21:43:41.804Z,100559.25
2023-06-04T21:46:08.870Z,100620.75
2023-06-04T21:49:20.687Z,100531.06
2023-06-04T21:51:47.245Z,100558.56
2023-06-04T21:54:13.784Z,100520.38
2023-06-04T21:56:40.265Z,100509.44
2023-06-04T21:59:07.877Z,100539.19
2023-06-04T22:01:34.645Z,100641.63
2023-06-04T22:04:01.169Z,100645.47
2023-06-04T22:06:28.647Z,100596.69
2023-06-04T22:08:55.159Z,100480.31
2023-06-04T22:11:22.691Z,100682.19
2023-06-04T22:13:49.188Z,100594.28
2023-06-04T22:16:15.845Z,100511.22
2023-06-04T22:21:15.443Z,100643.75
2023-06-04T22:23:42.042Z,100684.00
2023-06-04T22:26:08.589Z,100467.34
2023-06-04T22:28:35.106Z,100510.34
2023-06-04T22:31:01.699Z,100585.47
2023-06-04T22:33:30.130Z,100630.09
2023-06-04T22:35:56.871Z,100459.16
2023-06-04T22:38:24.782Z,100667.59
2023-06-04T22:40:51.876Z,100611.25
2023-06-04T22:43:18.353Z,100542.34
2023-06-04T22:45:44.919Z,100677.41
2023-06-04T22:48:11.529Z,100543.91
2023-06-04T22:50:38.158Z,100669.44
2023-06-04T22:53:09.072Z,100597.03
2023-06-04T22:55:36.800Z,100675.41
2023-06-04T22:58:03.710Z,100628.50
2023-06-04T23:00:31.094Z,100687.38
2023-06-04T23:02:57.797Z,100555.25
2023-06-04T23:05:25.708Z,100604.38
2023-06-04T23:07:52.741Z,100597.16
2023-06-04T23:10:19.421Z,100588.19
2023-06-04T23:12:46.712Z,100582.88
2023-06-04T23:15:24.228Z,100683.78
2023-06-04T23:17:51.594Z,100579.47
2023-06-04T23:20:19.135Z,100570.06
2023-06-04T23:22:46.457Z,100590.72
2023-06-04T23:25:13.095Z,100603.38
2023-06-04T23:27:39.630Z,100459.34
2023-06-04T23:30:06.844Z,100667.00
2023-06-04T23:32:33.650Z,100587.66
2023-06-04T23:35:00.224Z,100634.91
2023-06-04T23:37:26.774Z,100566.41
2023-06-04T23:39:53.657Z,100549.56
2023-06-04T23:42:20.154Z,100601.56
2023-06-04T23:44:46.667Z,100569.41
2023-06-04T23:47:13.238Z,100491.34
2023-06-04T23:49:39.752Z,100630.84
2023-06-04T23:52:06.460Z,100495.94
2023-06-04T23:54:33.038Z,100671.97
2023-06-04T23:56:59.877Z,100590.16
2023-06-04T23:59:27.128Z,100498.38
